sensor_id;sensor_type;location;lat;lon;timestamp;pressure;altitude;pressure_sealevel;temperature
41654;BMP280;30790;52.030;7.110;2023-03-04T00:00:52;101737.50;;;20.52
41654;BMP280;30790;52.030;7.110;2023-03-04T00:03:17;101731.66;;;20.49
41654;BMP280;30790;52.030;7.110;2023-03-04T00:05:43;101737.94;;;20.49
41654;BMP280;30790;52.030;7.110;2023-03-04T00:08:09;101738.16;;;20.48
41654;BMP280;30790;52.030;7.110;2023-03-04T00:10:34;101747.19;;;20.48
41654;BMP280;30790;52.030;7.110;2023-03-04T00:12:59;101740.06;;;20.47
41654;BMP280;30790;52.030;7.110;2023-03-04T00:15:25;101739.00;;;20.48
41654;BMP280;30790;52.030;7.110;2023-03-04T00:17:50;101739.44;;;20.45
41654;BMP280;30790;52.030;7.110;2023-03-04T00:20:15;101735.06;;;20.44
41654;BMP280;30790;52.030;7.110;2023-03-04T00:22:41;101742.19;;;20.45
41654;BMP280;30790;52.030;7.110;2023-03-04T00:25:06;101739.66;;;20.44
41654;BMP280;30790;52.030;7.110;2023-03-04T00:27:31;101731.09;;;20.40
41654;BMP280;30790;52.030;7.110;2023-03-04T00:29:57;101733.81;;;20.40
41654;BMP280;30790;52.030;7.110;2023-03-04T00:32:22;101743.47;;;20.43
41654;BMP280;30790;52.030;7.110;2023-03-04T00:34:47;101721.88;;;20.34
41654;BMP280;30790;52.030;7.110;2023-03-04T00:37:13;101733.81;;;20.40
41654;BMP280;30790;52.030;7.110;2023-03-04T00:39:39;101729.63;;;20.37
41654;BMP280;30790;52.030;7.110;2023-03-04T00:42:04;101730.47;;;20.38
41654;BMP280;30790;52.030;7.110;2023-03-04T00:44:29;101727.34;;;20.34
41654;BMP280;30790;52.030;7.110;2023-03-04T00:46:54;101714.16;;;20.31
41654;BMP280;30790;52.030;7.110;2023-03-04T00:49:20;101727.78;;;20.31
41654;BMP280;30790;52.030;7.110;2023-03-04T00:51:46;101727.56;;;20.33
41654;BMP280;30790;52.030;7.110;2023-03-04T00:54:11;101727.56;;;20.33
41654;BMP280;30790;52.030;7.110;2023-03-04T00:56:36;101714.19;;;20.25
41654;BMP280;30790;52.030;7.110;2023-03-04T00:59:01;101727.78;;;20.31
41654;BMP280;30790;52.030;7.110;2023-03-04T01:01:27;101734.06;;;20.32
41654;BMP280;30790;52.030;7.110;2023-03-04T01:03:52;101720.66;;;20.30
41654;BMP280;30790;52.030;7.110;2023-03-04T01:06:17;101722.78;;;20.28
41654;BMP280;30790;52.030;7.110;2023-03-04T01:08:43;101726.97;;;20.31
41654;BMP280;30790;52.030;7.110;2023-03-04T01:11:08;101717.97;;;20.24
41654;BMP280;30790;52.030;7.110;2023-03-04T01:13:34;101718.38;;;20.27
41654;BMP280;30790;52.030;7.110;2023-03-04T01:15:59;101721.31;;;20.26
41654;BMP280;30790;52.030;7.110;2023-03-04T01:18:26;101716.91;;;20.25
41654;BMP280;30790;52.030;7.110;2023-03-04T01:20:51;101707.28;;;20.22
41654;BMP280;30790;52.030;7.110;2023-03-04T01:23:16;101717.97;;;20.24
41654;BMP280;30790;52.030;7.110;2023-03-04T01:25:42;101712.75;;;20.22
41654;BMP280;30790;52.030;7.110;2023-03-04T01:28:07;101708.34;;;20.21
41654;BMP280;30790;52.030;7.110;2023-03-04T01:30:32;101701.22;;;20.20
41654;BMP280;30790;52.030;7.110;2023-03-04T01:32:58;101709.19;;;20.22
41654;BMP280;30790;52.030;7.110;2023-03-04T01:35:23;101704.78;;;20.21
41654;BMP280;30790;52.030;7.110;2023-03-04T01:37:48;101694.75;;;20.15
41654;BMP280;30790;52.030;7.110;2023-03-04T01:40:13;101695.16;;;20.18
41654;BMP280;30790;52.030;7.110;2023-03-04T01:42:39;101691.81;;;20.16
41654;BMP280;30790;52.030;7.110;2023-03-04T01:45:05;101696.44;;;20.16
41654;BMP280;30790;52.030;7.110;2023-03-04T01:47:32;101694.16;;;20.13
41654;BMP280;30790;52.030;7.110;2023-03-04T01:50:03;101695.59;;;20.15
41654;BMP280;30790;52.030;7.110;2023-03-04T01:52:29;101684.53;;;20.10
41654;BMP280;30790;52.030;7.110;2023-03-04T01:54:54;101691.88;;;20.10
41654;BMP280;30790;52.030;7.110;2023-03-04T01:57:22;101687.03;;;20.12
41654;BMP280;30790;52.030;7.110;2023-03-04T02:02:36;101687.88;;;20.12
41654;BMP280;30790;52.030;7.110;2023-03-04T02:05:01;101678.25;;;20.10
41654;BMP280;30790;52.030;7.110;2023-03-04T02:07:27;101684.53;;;20.10
41654;BMP280;30790;52.030;7.110;2023-03-04T02:09:52;101671.97;;;20.09
41654;BMP280;30790;52.030;7.110;2023-03-04T02:12:17;101688.09;;;20.11
41654;BMP280;30790;52.030;7.110;2023-03-04T02:14:43;101682.25;;;20.07
41654;BMP280;30790;52.030;7.110;2023-03-04T02:17:11;101681.41;;;20.06
41654;BMP280;30790;52.030;7.110;2023-03-04T02:20:03;101684.75;;;20.09
41654;BMP280;30790;52.030;7.110;2023-03-04T02:22:31;101672.63;;;20.04
41654;BMP280;30790;52.030;7.110;2023-03-04T02:25:02;101669.28;;;20.02
41654;BMP280;30790;52.030;7.110;2023-03-04T02:27:31;101673.69;;;20.03
41654;BMP280;30790;52.030;7.110;2023-03-04T02:29:56;101666.56;;;20.02
41654;BMP280;30790;52.030;7.110;2023-03-04T02:32:21;101664.66;;;20.03
41654;BMP280;30790;52.030;7.110;2023-03-04T02:34:48;101667.84;;;20.00
41654;BMP280;30790;52.030;7.110;2023-03-04T02:37:14;101674.97;;;20.01
41654;BMP280;30790;52.030;7.110;2023-03-04T02:39:45;101666.56;;;20.02
41654;BMP280;30790;52.030;7.110;2023-03-04T02:42:11;101668.69;;;20.00
41654;BMP280;30790;52.030;7.110;2023-03-04T02:44:39;101656.06;;;19.99
41654;BMP280;30790;52.030;7.110;2023-03-04T02:47:07;101646.06;;;19.93
41654;BMP280;30790;52.030;7.110;2023-03-04T02:49:35;101652.31;;;20.00
41654;BMP280;30790;52.030;7.110;2023-03-04T02:52:12;101655.25;;;19.99
41654;BMP280;30790;52.030;7.110;2023-03-04T02:54:37;101657.13;;;19.98
41654;BMP280;30790;52.030;7.110;2023-03-04T02:57:08;101649.19;;;19.97
41654;BMP280;30790;52.030;7.110;2023-03-04T02:59:36;101637.88;;;19.93
41654;BMP280;30790;52.030;7.110;2023-03-04T03:02:01;101641.00;;;19.97
41654;BMP280;30790;52.030;7.110;2023-03-04T03:04:26;101649.41;;;19.95
41654;BMP280;30790;52.030;7.110;2023-03-04T03:06:52;101643.94;;;19.95
41654;BMP280;30790;52.030;7.110;2023-03-04T03:09:18;101635.16;;;19.93
41654;BMP280;30790;52.030;7.110;2023-03-04T03:11:44;101636.84;;;19.94
41654;BMP280;30790;52.030;7.110;2023-03-04T03:14:09;101635.59;;;19.90
41654;BMP280;30790;52.030;7.110;2023-03-04T03:16:35;101636.22;;;19.92
41654;BMP280;30790;52.030;7.110;2023-03-04T03:19:00;101636.00;;;19.94
41654;BMP280;30790;52.030;7.110;2023-03-04T03:21:26;101635.16;;;19.93
41654;BMP280;30790;52.030;7.110;2023-03-04T03:23:51;101636.06;;;19.87
41654;BMP280;30790;52.030;7.110;2023-03-04T03:26:17;101638.94;;;19.92
41654;BMP280;30790;52.030;7.110;2023-03-04T03:28:42;101628.28;;;19.91
41654;BMP280;30790;52.030;7.110;2023-03-04T03:31:08;101621.44;;;19.82
41654;BMP280;30790;52.030;7.110;2023-03-04T03:33:34;101624.31;;;19.87
41654;BMP280;30790;52.030;7.110;2023-03-04T03:35:59;101621.81;;;19.85
41654;BMP280;30790;52.030;7.110;2023-03-04T03:38:25;101628.72;;;19.88
41654;BMP280;30790;52.030;7.110;2023-03-04T03:40:51;101616.38;;;19.85
41654;BMP280;30790;52.030;7.110;2023-03-04T03:43:16;101617.19;;;19.86
41654;BMP280;30790;52.030;7.110;2023-03-04T03:45:41;101623.72;;;19.85
41654;BMP280;30790;52.030;7.110;2023-03-04T03:48:07;101620.75;;;19.86
41654;BMP280;30790;52.030;7.110;2023-03-04T03:50:32;101626.44;;;19.85
41654;BMP280;30790;52.030;7.110;2023-03-04T03:52:58;101617.19;;;19.86
41654;BMP280;30790;52.030;7.110;2023-03-04T03:55:24;101610.53;;;19.82
41654;BMP280;30790;52.030;7.110;2023-03-04T03:57:49;101615.75;;;19.83
41654;BMP280;30790;52.030;7.110;2023-03-04T04:00:15;101610.75;;;19.80
41654;BMP280;30790;52.030;7.110;2023-03-04T04:02:41;101608.63;;;19.82
41654;BMP280;30790;52.030;7.110;2023-03-04T04:05:07;101615.16;;;19.81
41654;BMP280;30790;52.030;7.110;2023-03-04T04:07:33;101620.97;;;19.85
41654;BMP280;30790;52.030;7.110;2023-03-04T04:09:58;101623.31;;;19.81
41654;BMP280;30790;52.030;7.110;2023-03-04T04:12:24;101614.75;;;19.78
41654;BMP280;30790;52.030;7.110;2023-03-04T04:14:49;101615.59;;;19.78
41654;BMP280;30790;52.030;7.110;2023-03-04T04:17:14;101614.97;;;19.76
41654;BMP280;30790;52.030;7.110;2023-03-04T04:19:40;101612.66;;;19.80
41654;BMP280;30790;52.030;7.110;2023-03-04T04:22:17;101618.31;;;19.78
41654;BMP280;30790;52.030;7.110;2023-03-04T04:24:43;101609.97;;;19.73
41654;BMP280;30790;52.030;7.110;2023-03-04T04:27:09;101623.53;;;19.80
41654;BMP280;30790;52.030;7.110;2023-03-04T04:29:34;101617.88;;;19.81
41654;BMP280;30790;52.030;7.110;2023-03-04T04:32:00;101618.47;;;19.83
41654;BMP280;30790;52.030;7.110;2023-03-04T04:34:25;101615.94;;;19.88
41654;BMP280;30790;52.030;7.110;2023-03-04T04:36:51;101608.34;;;19.90
41654;BMP280;30790;52.030;7.110;2023-03-04T04:39:16;101609.59;;;19.94
41654;BMP280;30790;52.030;7.110;2023-03-04T04:41:43;101611.44;;;20.00
41654;BMP280;30790;52.030;7.110;2023-03-04T04:44:09;101615.16;;;20.06
41654;BMP280;30790;52.030;7.110;2023-03-04T04:46:36;101614.50;;;20.11
41654;BMP280;30790;52.030;7.110;2023-03-04T04:49:02;101608.59;;;20.14
41654;BMP280;30790;52.030;7.110;2023-03-04T04:51:27;101603.13;;;20.14
41654;BMP280;30790;52.030;7.110;2023-03-04T04:53:53;101603.31;;;20.19
41654;BMP280;30790;52.030;7.110;2023-03-04T04:56:22;101606.88;;;20.19
41654;BMP280;30790;52.030;7.110;2023-03-04T04:58:51;101609.31;;;20.27
41654;BMP280;30790;52.030;7.110;2023-03-04T05:01:16;101605.97;;;20.25
41654;BMP280;30790;52.030;7.110;2023-03-04T05:03:42;101593.63;;;20.23
41654;BMP280;30790;52.030;7.110;2023-03-04T05:06:10;101603.00;;;20.27
41654;BMP280;30790;52.030;7.110;2023-03-04T05:08:35;101600.28;;;20.27
41654;BMP280;30790;52.030;7.110;2023-03-04T05:11:01;101605.09;;;20.31
41654;BMP280;30790;52.030;7.110;2023-03-04T05:13:27;101591.06;;;20.28
41654;BMP280;30790;52.030;7.110;2023-03-04T05:15:54;101606.06;;;20.37
41654;BMP280;30790;52.030;7.110;2023-03-04T05:18:21;101605.84;;;20.38
41654;BMP280;30790;52.030;7.110;2023-03-04T05:20:55;101609.00;;;20.42
41654;BMP280;30790;52.030;7.110;2023-03-04T05:23:21;101610.88;;;20.42
41654;BMP280;30790;52.030;7.110;2023-03-04T05:25:47;101610.44;;;20.45
41654;BMP280;30790;52.030;7.110;2023-03-04T05:28:13;101617.31;;;20.47
41654;BMP280;30790;52.030;7.110;2023-03-04T05:30:39;101614.38;;;20.49
41654;BMP280;30790;52.030;7.110;2023-03-04T05:33:06;101621.28;;;20.51
41654;BMP280;30790;52.030;7.110;2023-03-04T05:35:33;101614.53;;;20.54
41654;BMP280;30790;52.030;7.110;2023-03-04T05:37:59;101616.25;;;20.48
41654;BMP280;30790;52.030;7.110;2023-03-04T05:40:24;101613.69;;;20.53
41654;BMP280;30790;52.030;7.110;2023-03-04T05:42:50;101620.38;;;20.57
41654;BMP280;30790;52.030;7.110;2023-03-04T05:45:15;101614.75;;;20.52
41654;BMP280;30790;52.030;7.110;2023-03-04T05:47:40;101622.28;;;20.57
41654;BMP280;30790;52.030;7.110;2023-03-04T05:50:06;101626.91;;;20.56
41654;BMP280;30790;52.030;7.110;2023-03-04T05:52:31;101628.56;;;20.57
41654;BMP280;30790;52.030;7.110;2023-03-04T05:54:57;101634.03;;;20.57
41654;BMP280;30790;52.030;7.110;2023-03-04T05:57:22;101625.84;;;20.57
41654;BMP280;30790;52.030;7.110;2023-03-04T05:59:47;101621.69;;;20.55
41654;BMP280;30790;52.030;7.110;2023-03-04T06:02:12;101621.22;;;20.58
41654;BMP280;30790;52.030;7.110;2023-03-04T06:04:38;101621.59;;;20.61
41654;BMP280;30790;52.030;7.110;2023-03-04T06:07:03;101618.66;;;20.63
41654;BMP280;30790;52.030;7.110;2023-03-04T06:09:28;101620.78;;;20.61
41654;BMP280;30790;52.030;7.110;2023-03-04T06:11:53;101618.94;;;20.55
41654;BMP280;30790;52.030;7.110;2023-03-04T06:14:19;101614.25;;;20.62
41654;BMP280;30790;52.030;7.110;2023-03-04T06:16:44;101615.69;;;20.64
41654;BMP280;30790;52.030;7.110;2023-03-04T06:19:09;101615.69;;;20.64
41654;BMP280;30790;52.030;7.110;2023-03-04T06:21:34;101618.41;;;20.64
41654;BMP280;30790;52.030;7.110;2023-03-04T06:24:00;101612.59;;;20.61
41654;BMP280;30790;52.030;7.110;2023-03-04T06:26:25;101619.84;;;20.67
41654;BMP280;30790;52.030;7.110;2023-03-04T06:28:51;101628.66;;;20.69
41654;BMP280;30790;52.030;7.110;2023-03-04T06:31:16;101620.47;;;20.69
41654;BMP280;30790;52.030;7.110;2023-03-04T06:33:41;101625.91;;;20.69
41654;BMP280;30790;52.030;7.110;2023-03-04T06:36:07;101619.78;;;20.92
41654;BMP280;30790;52.030;7.110;2023-03-04T06:38:32;101627.53;;;21.13
41654;BMP280;30790;52.030;7.110;2023-03-04T06:41:05;101628.81;;;21.29
41654;BMP280;30790;52.030;7.110;2023-03-04T06:43:30;101631.91;;;21.33
41654;BMP280;30790;52.030;7.110;2023-03-04T06:45:55;101630.47;;;21.30
41654;BMP280;30790;52.030;7.110;2023-03-04T06:48:21;101625.09;;;21.23
41654;BMP280;30790;52.030;7.110;2023-03-04T06:50:46;101625.94;;;21.24
41654;BMP280;30790;52.030;7.110;2023-03-04T06:53:11;101634.41;;;21.16
41654;BMP280;30790;52.030;7.110;2023-03-04T06:55:36;101638.91;;;21.10
41654;BMP280;30790;52.030;7.110;2023-03-04T06:58:02;101641.31;;;21.18
41654;BMP280;30790;52.030;7.110;2023-03-04T07:00:27;101643.16;;;21.24
41654;BMP280;30790;52.030;7.110;2023-03-04T07:02:52;101644.13;;;21.30
41654;BMP280;30790;52.030;7.110;2023-03-04T07:05:18;101647.53;;;21.44
41654;BMP280;30790;52.030;7.110;2023-03-04T07:07:43;101643.03;;;21.49
41654;BMP280;30790;52.030;7.110;2023-03-04T07:10:09;101648.53;;;21.61
41654;BMP280;30790;52.030;7.110;2023-03-04T07:12:35;101652.25;;;21.67
41654;BMP280;30790;52.030;7.110;2023-03-04T07:15:01;101647.88;;;21.66
41654;BMP280;30790;52.030;7.110;2023-03-04T07:17:26;101635.63;;;21.68
41654;BMP280;30790;52.030;7.110;2023-03-04T07:19:51;101642.78;;;21.81
41654;BMP280;30790;52.030;7.110;2023-03-04T07:22:17;101640.66;;;21.83
41654;BMP280;30790;52.030;7.110;2023-03-04T07:24:42;101636.84;;;21.84
41654;BMP280;30790;52.030;7.110;2023-03-04T07:27:07;101643.16;;;21.84
41654;BMP280;30790;52.030;7.110;2023-03-04T07:29:33;101655.97;;;21.84
41654;BMP280;30790;52.030;7.110;2023-03-04T07:31:58;101643.16;;;21.84
41654;BMP280;30790;52.030;7.110;2023-03-04T07:34:23;101651.94;;;21.86
41654;BMP280;30790;52.030;7.110;2023-03-04T07:36:48;101641.13;;;21.80
41654;BMP280;30790;52.030;7.110;2023-03-04T07:39:14;101646.59;;;21.80
41654;BMP280;30790;52.030;7.110;2023-03-04T07:41:39;101651.81;;;21.81
41654;BMP280;30790;52.030;7.110;2023-03-04T07:44:05;101643.97;;;21.73
41654;BMP280;30790;52.030;7.110;2023-03-04T07:46:32;101650.03;;;21.75
41654;BMP280;30790;52.030;7.110;2023-03-04T07:48:57;101656.78;;;21.73
41654;BMP280;30790;52.030;7.110;2023-03-04T07:51:24;101655.72;;;21.74
41654;BMP280;30790;52.030;7.110;2023-03-04T07:53:52;101651.56;;;21.71
41654;BMP280;30790;52.030;7.110;2023-03-04T07:56:21;101650.72;;;21.71
41654;BMP280;30790;52.030;7.110;2023-03-04T07:58:47;101656.44;;;21.69
41654;BMP280;30790;52.030;7.110;2023-03-04T08:03:40;101649.28;;;21.68
41654;BMP280;30790;52.030;7.110;2023-03-04T08:06:06;101650.97;;;21.69
41654;BMP280;30790;52.030;7.110;2023-03-04T08:08:32;101650.59;;;21.66
41654;BMP280;30790;52.030;7.110;2023-03-04T08:10:58;101645.56;;;21.63
41654;BMP280;30790;52.030;7.110;2023-03-04T08:13:23;101643.31;;;21.59
41654;BMP280;30790;52.030;7.110;2023-03-04T08:15:48;101645.66;;;21.56
41654;BMP280;30790;52.030;7.110;2023-03-04T08:18:14;101640.44;;;21.54
41654;BMP280;30790;52.030;7.110;2023-03-04T08:20:42;101647.09;;;21.58
41654;BMP280;30790;52.030;7.110;2023-03-04T08:23:09;101642.94;;;21.56
41654;BMP280;30790;52.030;7.110;2023-03-04T08:25:38;101652.19;;;21.55
41654;BMP280;30790;52.030;7.110;2023-03-04T08:28:03;101645.06;;;21.54
41654;BMP280;30790;52.030;7.110;2023-03-04T08:30:29;101651.22;;;21.49
41654;BMP280;30790;52.030;7.110;2023-03-04T08:32:54;101653.13;;;21.49
41654;BMP280;30790;52.030;7.110;2023-03-04T08:35:19;101656.09;;;21.47
41654;BMP280;30790;52.030;7.110;2023-03-04T08:37:44;101642.75;;;21.39
41654;BMP280;30790;52.030;7.110;2023-03-04T08:40:11;101645.25;;;21.41
41654;BMP280;30790;52.030;7.110;2023-03-04T08:42:36;101653.47;;;21.41
41654;BMP280;30790;52.030;7.110;2023-03-04T08:45:02;101655.97;;;21.42
41654;BMP280;30790;52.030;7.110;2023-03-04T08:47:27;101653.91;;;21.38
41654;BMP280;30790;52.030;7.110;2023-03-04T08:49:52;101652.25;;;21.37
41654;BMP280;30790;52.030;7.110;2023-03-04T08:52:18;101649.94;;;21.34
41654;BMP280;30790;52.030;7.110;2023-03-04T08:54:43;101653.91;;;21.38
41654;BMP280;30790;52.030;7.110;2023-03-04T08:57:08;101647.22;;;21.34
41654;BMP280;30790;52.030;7.110;2023-03-04T08:59:33;101647.44;;;21.32
41654;BMP280;30790;52.030;7.110;2023-03-04T09:01:59;101647.22;;;21.34
41654;BMP280;30790;52.030;7.110;2023-03-04T09:04:24;101649.94;;;21.34
41654;BMP280;30790;52.030;7.110;2023-03-04T09:06:49;101654.34;;;21.35
41654;BMP280;30790;52.030;7.110;2023-03-04T09:09:14;101642.22;;;21.31
41654;BMP280;30790;52.030;7.110;2023-03-04T09:11:40;101644.34;;;21.28
41654;BMP280;30790;52.030;7.110;2023-03-04T09:14:05;101651.47;;;21.29
41654;BMP280;30790;52.030;7.110;2023-03-04T09:16:30;101656.72;;;21.31
41654;BMP280;30790;52.030;7.110;2023-03-04T09:18:56;101643.53;;;21.28
41654;BMP280;30790;52.030;7.110;2023-03-04T09:21:22;101647.31;;;21.27
41654;BMP280;30790;52.030;7.110;2023-03-04T09:23:47;101649.81;;;21.28
41654;BMP280;30790;52.030;7.110;2023-03-04T09:26:26;101640.19;;;21.26
41654;BMP280;30790;52.030;7.110;2023-03-04T09:28:57;101645.66;;;21.26
41654;BMP280;30790;52.030;7.110;2023-03-04T09:31:23;101639.78;;;21.22
41654;BMP280;30790;52.030;7.110;2023-03-04T09:33:50;101646.72;;;21.25
41654;BMP280;30790;52.030;7.110;2023-03-04T09:36:16;101645.88;;;21.24
41654;BMP280;30790;52.030;7.110;2023-03-04T09:38:42;101639.59;;;21.24
41654;BMP280;30790;52.030;7.110;2023-03-04T09:41:11;101632.66;;;21.21
41654;BMP280;30790;52.030;7.110;2023-03-04T09:43:38;101629.78;;;21.16
41654;BMP280;30790;52.030;7.110;2023-03-04T09:46:08;101633.22;;;21.12
41654;BMP280;30790;52.030;7.110;2023-03-04T09:48:50;101627.75;;;21.12
41654;BMP280;30790;52.030;7.110;2023-03-04T09:51:54;101632.16;;;21.13
41654;BMP280;30790;52.030;7.110;2023-03-04T09:54:30;101629.69;;;21.05
41654;BMP280;30790;52.030;7.110;2023-03-04T09:57:28;101635.56;;;20.90
41654;BMP280;30790;52.030;7.110;2023-03-04T10:00:35;101630.34;;;20.88
41654;BMP280;30790;52.030;7.110;2023-03-04T10:03:14;101620.09;;;20.84
41654;BMP280;30790;52.030;7.110;2023-03-04T10:06:06;101640.09;;;20.78
41654;BMP280;30790;52.030;7.110;2023-03-04T10:08:54;101621.16;;;20.83
41654;BMP280;30790;52.030;7.110;2023-03-04T10:11:44;101627.91;;;20.98
41654;BMP280;30790;52.030;7.110;2023-03-04T10:16:50;101617.13;;;21.04
41654;BMP280;30790;52.030;7.110;2023-03-04T10:22:49;101617.94;;;21.22
41654;BMP280;30790;52.030;7.110;2023-03-04T10:25:30;101622.97;;;21.25
41654;BMP280;30790;52.030;7.110;2023-03-04T10:28:08;101620.97;;;21.33
41654;BMP280;30790;52.030;7.110;2023-03-04T10:30:47;101635.41;;;21.40
41654;BMP280;30790;52.030;7.110;2023-03-04T10:33:16;101618.84;;;21.35
41654;BMP280;30790;52.030;7.110;2023-03-04T10:36:02;101621.22;;;21.31
41654;BMP280;30790;52.030;7.110;2023-03-04T10:38:34;101625.84;;;21.31
41654;BMP280;30790;52.030;7.110;2023-03-04T10:41:01;101618.47;;;21.31
41654;BMP280;30790;52.030;7.110;2023-03-04T10:43:35;101626.66;;;21.31
41654;BMP280;30790;52.030;7.110;2023-03-04T10:46:01;101629.31;;;21.19
41654;BMP280;30790;52.030;7.110;2023-03-04T10:48:29;101617.09;;;21.22
41654;BMP280;30790;52.030;7.110;2023-03-04T10:53:39;101618.78;;;21.23
41654;BMP280;30790;52.030;7.110;2023-03-04T10:56:41;101612.47;;;21.22
41654;BMP280;30790;52.030;7.110;2023-03-04T10:59:33;101612.88;;;21.26
41654;BMP280;30790;52.030;7.110;2023-03-04T11:02:10;101612.06;;;21.25
41654;BMP280;30790;52.030;7.110;2023-03-04T11:04:37;101604.53;;;21.21
41654;BMP280;30790;52.030;7.110;2023-03-04T11:07:07;101606.59;;;21.25
41654;BMP280;30790;52.030;7.110;2023-03-04T11:09:33;101609.69;;;21.29
41654;BMP280;30790;52.030;7.110;2023-03-04T11:12:00;101586.41;;;21.26
41654;BMP280;30790;52.030;7.110;2023-03-04T11:14:48;101599.00;;;21.27
41654;BMP280;30790;52.030;7.110;2023-03-04T11:17:27;101601.72;;;21.27
41654;BMP280;30790;52.030;7.110;2023-03-04T11:19:57;101587.91;;;21.22
41654;BMP280;30790;52.030;7.110;2023-03-04T11:22:28;101594.28;;;21.16
41654;BMP280;30790;52.030;7.110;2023-03-04T11:24:57;101591.94;;;21.20
41654;BMP280;30790;52.030;7.110;2023-03-04T11:27:33;101587.31;;;21.20
41654;BMP280;30790;52.030;7.110;2023-03-04T11:30:25;101593.22;;;21.17
41654;BMP280;30790;52.030;7.110;2023-03-04T11:32:56;101595.34;;;21.15
41654;BMP280;30790;52.030;7.110;2023-03-04T11:35:43;101593.69;;;21.14
41654;BMP280;30790;52.030;7.110;2023-03-04T11:38:23;101585.13;;;21.11
41654;BMP280;30790;52.030;7.110;2023-03-04T11:40:58;101592.63;;;21.15
41654;BMP280;30790;52.030;7.110;2023-03-04T11:43:29;101585.28;;;21.16
41654;BMP280;30790;52.030;7.110;2023-03-04T11:46:35;101584.34;;;21.22
41654;BMP280;30790;52.030;7.110;2023-03-04T11:52:23;101578.97;;;21.15
41654;BMP280;30790;52.030;7.110;2023-03-04T12:11:48;101559.41;;;21.37
41654;BMP280;30790;52.030;7.110;2023-03-04T12:15:27;101565.28;;;21.34
41654;BMP280;30790;52.030;7.110;2023-03-04T12:20:24;101557.28;;;21.20
41654;BMP280;30790;52.030;7.110;2023-03-04T12:28:24;101553.72;;;21.20
41654;BMP280;30790;52.030;7.110;2023-03-04T12:39:05;101541.41;;;21.29
41654;BMP280;30790;52.030;7.110;2023-03-04T12:44:17;101541.31;;;21.36
41654;BMP280;30790;52.030;7.110;2023-03-04T12:47:03;101538.75;;;21.41
41654;BMP280;30790;52.030;7.110;2023-03-04T12:50:13;101528.34;;;21.31
41654;BMP280;30790;52.030;7.110;2023-03-04T12:53:02;101534.25;;;21.46
41654;BMP280;30790;52.030;7.110;2023-03-04T12:55:39;101534.13;;;21.53
41654;BMP280;30790;52.030;7.110;2023-03-04T12:58:17;101532.34;;;21.58
41654;BMP280;30790;52.030;7.110;2023-03-04T13:03:46;101525.34;;;21.63
41654;BMP280;30790;52.030;7.110;2023-03-04T13:06:42;101524.75;;;21.60
41654;BMP280;30790;52.030;7.110;2023-03-04T13:09:27;101516.19;;;21.57
41654;BMP280;30790;52.030;7.110;2023-03-04T13:12:17;101520.09;;;21.49
41654;BMP280;30790;52.030;7.110;2023-03-04T13:17:42;101518.59;;;21.65
41654;BMP280;30790;52.030;7.110;2023-03-04T13:20:31;101511.47;;;21.64
41654;BMP280;30790;52.030;7.110;2023-03-04T13:23:02;101513.59;;;21.62
41654;BMP280;30790;52.030;7.110;2023-03-04T13:25:42;101506.47;;;21.61
41654;BMP280;30790;52.030;7.110;2023-03-04T13:43:50;101493.84;;;21.48
41654;BMP280;30790;52.030;7.110;2023-03-04T13:51:26;101494.09;;;21.47
41654;BMP280;30790;52.030;7.110;2023-03-04T14:04:15;101461.78;;;21.44
41654;BMP280;30790;52.030;7.110;2023-03-04T14:06:46;101470.59;;;21.46
41654;BMP280;30790;52.030;7.110;2023-03-04T14:09:14;101462.16;;;21.47
41654;BMP280;30790;52.030;7.110;2023-03-04T14:11:41;101464.06;;;21.47
41654;BMP280;30790;52.030;7.110;2023-03-04T14:14:11;101463.69;;;21.43
41654;BMP280;30790;52.030;7.110;2023-03-04T14:16:40;101459.28;;;21.42
41654;BMP280;30790;52.030;7.110;2023-03-04T14:19:15;101462.25;;;21.41
41654;BMP280;30790;52.030;7.110;2023-03-04T14:21:45;101460.38;;;21.41
41654;BMP280;30790;52.030;7.110;2023-03-04T14:24:14;101464.41;;;21.39
41654;BMP280;30790;52.030;7.110;2023-03-04T14:26:39;101448.47;;;21.36
41654;BMP280;30790;52.030;7.110;2023-03-04T14:29:19;101460.59;;;21.40
41654;BMP280;30790;52.030;7.110;2023-03-04T14:31:45;101460.59;;;21.40
41654;BMP280;30790;52.030;7.110;2023-03-04T14:34:24;101453.47;;;21.39
41654;BMP280;30790;52.030;7.110;2023-03-04T14:36:50;101452.41;;;21.40
41654;BMP280;30790;52.030;7.110;2023-03-04T14:39:17;101451.81;;;21.38
41654;BMP280;30790;52.030;7.110;2023-03-04T14:41:45;101449.53;;;21.35
41654;BMP280;30790;52.030;7.110;2023-03-04T14:46:56;101451.66;;;21.33
41654;BMP280;30790;52.030;7.110;2023-03-04T14:49:23;101447.34;;;21.13
41654;BMP280;30790;52.030;7.110;2023-03-04T14:51:50;101444.00;;;18.32
41654;BMP280;30790;52.030;7.110;2023-03-04T14:56:52;101443.53;;;17.31
41654;BMP280;30790;52.030;7.110;2023-03-04T14:59:27;101444.06;;;16.74
41654;BMP280;30790;52.030;7.110;2023-03-04T15:01:52;101439.63;;;16.66
41654;BMP280;30790;52.030;7.110;2023-03-04T15:04:18;101437.59;;;16.33
41654;BMP280;30790;52.030;7.110;2023-03-04T15:06:51;101436.03;;;17.26
41654;BMP280;30790;52.030;7.110;2023-03-04T15:09:21;101443.72;;;18.67
41654;BMP280;30790;52.030;7.110;2023-03-04T15:11:50;101436.25;;;19.43
41654;BMP280;30790;52.030;7.110;2023-03-04T15:14:44;101451.22;;;19.84
41654;BMP280;30790;52.030;7.110;2023-03-04T15:22:34;101437.41;;;20.59
41654;BMP280;30790;52.030;7.110;2023-03-04T15:25:00;101438.97;;;20.66
41654;BMP280;30790;52.030;7.110;2023-03-04T15:27:27;101438.88;;;20.73
41654;BMP280;30790;52.030;7.110;2023-03-04T15:29:54;101431.59;;;20.85
41654;BMP280;30790;52.030;7.110;2023-03-04T15:32:26;101430.06;;;21.01
41654;BMP280;30790;52.030;7.110;2023-03-04T15:34:51;101429.38;;;21.06
41654;BMP280;30790;52.030;7.110;2023-03-04T15:37:22;101425.25;;;21.15
41654;BMP280;30790;52.030;7.110;2023-03-04T15:39:49;101422.41;;;21.21
41654;BMP280;30790;52.030;7.110;2023-03-04T15:42:15;101421.97;;;21.24
41654;BMP280;30790;52.030;7.110;2023-03-04T15:44:40;101426.25;;;21.32
41654;BMP280;30790;52.030;7.110;2023-03-04T15:47:08;101421.28;;;21.41